Strang, Nebraska
Current Conditions -  °F | °C
As of 12:55 PM on Thursday 30 Oct 2014 (Local Time) from KHJH Reporting Station
Clear Clear  
Wind Chill: 18°   Ceiling: Unl
Heat Index: 18°   Visibility: 10mi
Dew Point:   Wind: 17mph
Humidity: 32%   Direction: 330°NNW
Pressure: 30.14"   Gusts: 24mph
Location:  40.42°N, 97.59°W
Report Text: KHJH 301755Z AUTO 33015G21KT 10SM CLR 18/01 A3014 RMK AO2 T01820011 10183 20043
Loading
Personal Weather Stations






























Interactive Weather Map
Tropical Storm Tracking
New forecast layout! Learn more

10-Day Weather Forecast

Advertisements
Track Severe Weather on mobile